sensor_id;sensor_type;location;lat;lon;timestamp;temperature;humidity
49855;DHT22;35752;52.164;21.244;2022-11-21T00:00:49;-1.90;99.90
49855;DHT22;35752;52.164;21.244;2022-11-21T00:03:16;-1.90;99.90
49855;DHT22;35752;52.164;21.244;2022-11-21T00:05:44;-1.90;99.90
49855;DHT22;35752;52.164;21.244;2022-11-21T00:08:11;-1.90;99.90
49855;DHT22;35752;52.164;21.244;2022-11-21T00:10:38;-2.00;99.90
49855;DHT22;35752;52.164;21.244;2022-11-21T00:13:04;-2.00;99.90
49855;DHT22;35752;52.164;21.244;2022-11-21T00:15:31;-2.10;99.90
49855;DHT22;35752;52.164;21.244;2022-11-21T00:17:57;-2.10;99.90
49855;DHT22;35752;52.164;21.244;2022-11-21T00:20:23;-2.20;99.90
49855;DHT22;35752;52.164;21.244;2022-11-21T00:22:49;-2.20;99.90
49855;DHT22;35752;52.164;21.244;2022-11-21T00:25:14;-2.20;99.90
49855;DHT22;35752;52.164;21.244;2022-11-21T00:27:40;-2.30;99.90
49855;DHT22;35752;52.164;21.244;2022-11-21T00:30:08;-2.20;99.90
49855;DHT22;35752;52.164;21.244;2022-11-21T00:32:34;-2.20;99.90
49855;DHT22;35752;52.164;21.244;2022-11-21T00:35:00;-2.10;99.90
49855;DHT22;35752;52.164;21.244;2022-11-21T00:37:25;-2.00;99.90
49855;DHT22;35752;52.164;21.244;2022-11-21T00:39:51;-2.00;99.90
49855;DHT22;35752;52.164;21.244;2022-11-21T00:42:17;-1.90;99.90
49855;DHT22;35752;52.164;21.244;2022-11-21T00:44:42;-1.90;99.90
49855;DHT22;35752;52.164;21.244;2022-11-21T00:47:08;-1.90;99.90
49855;DHT22;35752;52.164;21.244;2022-11-21T00:49:33;-1.90;99.90
49855;DHT22;35752;52.164;21.244;2022-11-21T00:51:59;-2.00;99.90
49855;DHT22;35752;52.164;21.244;2022-11-21T00:54:25;-2.00;99.90
49855;DHT22;35752;52.164;21.244;2022-11-21T00:56:50;-2.00;99.90
49855;DHT22;35752;52.164;21.244;2022-11-21T00:59:16;-2.10;99.90
49855;DHT22;35752;52.164;21.244;2022-11-21T01:01:42;-2.10;99.90
49855;DHT22;35752;52.164;21.244;2022-11-21T01:04:07;-2.00;99.90
49855;DHT22;35752;52.164;21.244;2022-11-21T01:06:33;-2.00;99.90
49855;DHT22;35752;52.164;21.244;2022-11-21T01:08:58;-2.00;99.90
49855;DHT22;35752;52.164;21.244;2022-11-21T01:11:24;-2.20;99.90
49855;DHT22;35752;52.164;21.244;2022-11-21T01:13:52;-2.20;99.90
49855;DHT22;35752;52.164;21.244;2022-11-21T01:16:21;-2.10;99.90
49855;DHT22;35752;52.164;21.244;2022-11-21T01:18:47;-2.00;99.90
49855;DHT22;35752;52.164;21.244;2022-11-21T01:21:14;-2.00;99.90
49855;DHT22;35752;52.164;21.244;2022-11-21T01:23:40;-2.00;99.90
49855;DHT22;35752;52.164;21.244;2022-11-21T01:26:11;-2.00;99.90
49855;DHT22;35752;52.164;21.244;2022-11-21T01:28:37;-2.00;99.90
49855;DHT22;35752;52.164;21.244;2022-11-21T01:31:05;-1.90;99.90
49855;DHT22;35752;52.164;21.244;2022-11-21T01:33:31;-1.90;99.90
49855;DHT22;35752;52.164;21.244;2022-11-21T01:35:56;-1.90;99.90
49855;DHT22;35752;52.164;21.244;2022-11-21T01:38:22;-1.90;99.90
49855;DHT22;35752;52.164;21.244;2022-11-21T01:40:47;-1.90;99.90
49855;DHT22;35752;52.164;21.244;2022-11-21T01:43:14;-1.90;99.90
49855;DHT22;35752;52.164;21.244;2022-11-21T01:48:33;-1.90;99.90
49855;DHT22;35752;52.164;21.244;2022-11-21T01:51:27;-2.00;99.90
49855;DHT22;35752;52.164;21.244;2022-11-21T01:56:53;-2.00;99.90
49855;DHT22;35752;52.164;21.244;2022-11-21T01:59:29;-2.10;99.90
49855;DHT22;35752;52.164;21.244;2022-11-21T02:01:57;-2.20;99.90
49855;DHT22;35752;52.164;21.244;2022-11-21T02:04:26;-2.20;99.90
49855;DHT22;35752;52.164;21.244;2022-11-21T02:06:53;-2.30;99.90
49855;DHT22;35752;52.164;21.244;2022-11-21T02:09:19;-2.30;99.90
49855;DHT22;35752;52.164;21.244;2022-11-21T02:11:50;-2.50;99.90
49855;DHT22;35752;52.164;21.244;2022-11-21T02:14:17;-2.60;99.90
49855;DHT22;35752;52.164;21.244;2022-11-21T02:16:43;-2.60;99.90
49855;DHT22;35752;52.164;21.244;2022-11-21T02:19:14;-2.70;99.90
49855;DHT22;35752;52.164;21.244;2022-11-21T02:24:37;-3.00;99.90
49855;DHT22;35752;52.164;21.244;2022-11-21T02:27:04;-3.10;99.90
49855;DHT22;35752;52.164;21.244;2022-11-21T02:29:30;-3.20;99.90
49855;DHT22;35752;52.164;21.244;2022-11-21T02:31:59;-3.30;99.90
49855;DHT22;35752;52.164;21.244;2022-11-21T02:34:27;-3.40;99.90
49855;DHT22;35752;52.164;21.244;2022-11-21T02:36:52;-3.40;99.90
49855;DHT22;35752;52.164;21.244;2022-11-21T02:39:22;-3.40;99.90
49855;DHT22;35752;52.164;21.244;2022-11-21T02:42:01;-3.40;99.90
49855;DHT22;35752;52.164;21.244;2022-11-21T02:44:34;-3.60;99.90
49855;DHT22;35752;52.164;21.244;2022-11-21T02:47:01;-3.50;99.90
49855;DHT22;35752;52.164;21.244;2022-11-21T02:49:33;-3.50;99.90
49855;DHT22;35752;52.164;21.244;2022-11-21T02:52:02;-3.40;99.90
49855;DHT22;35752;52.164;21.244;2022-11-21T02:54:28;-3.50;99.90
49855;DHT22;35752;52.164;21.244;2022-11-21T02:56:53;-3.70;99.90
49855;DHT22;35752;52.164;21.244;2022-11-21T02:59:19;-3.60;99.90
49855;DHT22;35752;52.164;21.244;2022-11-21T03:01:45;-3.60;99.90
49855;DHT22;35752;52.164;21.244;2022-11-21T03:04:11;-3.60;99.90
49855;DHT22;35752;52.164;21.244;2022-11-21T03:06:36;-3.70;99.90
49855;DHT22;35752;52.164;21.244;2022-11-21T03:09:02;-3.80;99.90
49855;DHT22;35752;52.164;21.244;2022-11-21T03:11:28;-3.80;99.90
49855;DHT22;35752;52.164;21.244;2022-11-21T03:13:53;-3.80;99.90
49855;DHT22;35752;52.164;21.244;2022-11-21T03:16:19;-3.70;99.90
49855;DHT22;35752;52.164;21.244;2022-11-21T03:18:44;-3.80;99.90
49855;DHT22;35752;52.164;21.244;2022-11-21T03:21:10;-3.80;99.90
49855;DHT22;35752;52.164;21.244;2022-11-21T03:23:36;-3.80;99.90
49855;DHT22;35752;52.164;21.244;2022-11-21T03:26:01;-4.00;99.90
49855;DHT22;35752;52.164;21.244;2022-11-21T03:28:27;-4.00;99.90
49855;DHT22;35752;52.164;21.244;2022-11-21T03:30:53;-4.10;99.90
49855;DHT22;35752;52.164;21.244;2022-11-21T03:33:18;-4.20;99.90
49855;DHT22;35752;52.164;21.244;2022-11-21T03:35:44;-4.20;99.90
49855;DHT22;35752;52.164;21.244;2022-11-21T03:38:09;-4.20;99.90
49855;DHT22;35752;52.164;21.244;2022-11-21T03:40:35;-4.30;99.90
49855;DHT22;35752;52.164;21.244;2022-11-21T03:43:04;-4.40;99.90
49855;DHT22;35752;52.164;21.244;2022-11-21T03:45:30;-4.50;99.90
49855;DHT22;35752;52.164;21.244;2022-11-21T03:47:56;-4.60;99.90
49855;DHT22;35752;52.164;21.244;2022-11-21T03:50:22;-4.60;99.90
49855;DHT22;35752;52.164;21.244;2022-11-21T03:52:47;-4.70;99.90
49855;DHT22;35752;52.164;21.244;2022-11-21T03:55:13;-4.60;99.90
49855;DHT22;35752;52.164;21.244;2022-11-21T03:57:39;-4.60;99.90
49855;DHT22;35752;52.164;21.244;2022-11-21T04:00:05;-4.60;99.90
49855;DHT22;35752;52.164;21.244;2022-11-21T04:02:31;-4.60;99.90
49855;DHT22;35752;52.164;21.244;2022-11-21T04:04:57;-4.50;99.90
49855;DHT22;35752;52.164;21.244;2022-11-21T04:07:22;-4.50;99.90
49855;DHT22;35752;52.164;21.244;2022-11-21T04:09:48;-4.60;99.90
49855;DHT22;35752;52.164;21.244;2022-11-21T04:12:14;-4.60;99.90
49855;DHT22;35752;52.164;21.244;2022-11-21T04:14:39;-4.60;99.90
49855;DHT22;35752;52.164;21.244;2022-11-21T04:17:05;-4.70;99.90
49855;DHT22;35752;52.164;21.244;2022-11-21T04:19:31;-4.80;99.90
49855;DHT22;35752;52.164;21.244;2022-11-21T04:21:56;-4.90;99.90
49855;DHT22;35752;52.164;21.244;2022-11-21T04:24:22;-5.00;99.90
49855;DHT22;35752;52.164;21.244;2022-11-21T04:26:47;-4.90;99.90
49855;DHT22;35752;52.164;21.244;2022-11-21T04:29:13;-4.90;99.90
49855;DHT22;35752;52.164;21.244;2022-11-21T04:31:39;-4.90;99.90
49855;DHT22;35752;52.164;21.244;2022-11-21T04:34:04;-4.90;99.90
49855;DHT22;35752;52.164;21.244;2022-11-21T04:36:30;-5.00;99.90
49855;DHT22;35752;52.164;21.244;2022-11-21T04:38:56;-5.10;99.90
49855;DHT22;35752;52.164;21.244;2022-11-21T04:41:21;-5.20;99.90
49855;DHT22;35752;52.164;21.244;2022-11-21T04:43:47;-5.30;99.90
49855;DHT22;35752;52.164;21.244;2022-11-21T04:46:13;-5.20;99.90
49855;DHT22;35752;52.164;21.244;2022-11-21T04:48:38;-5.20;99.90
49855;DHT22;35752;52.164;21.244;2022-11-21T04:51:04;-5.20;99.90
49855;DHT22;35752;52.164;21.244;2022-11-21T04:53:29;-5.20;99.90
49855;DHT22;35752;52.164;21.244;2022-11-21T04:55:55;-5.20;99.90
49855;DHT22;35752;52.164;21.244;2022-11-21T04:58:21;-5.30;99.90
49855;DHT22;35752;52.164;21.244;2022-11-21T05:00:46;-5.20;99.90
49855;DHT22;35752;52.164;21.244;2022-11-21T05:03:12;-5.20;99.90
49855;DHT22;35752;52.164;21.244;2022-11-21T05:05:38;-5.20;99.90
49855;DHT22;35752;52.164;21.244;2022-11-21T05:08:03;-5.20;99.90
49855;DHT22;35752;52.164;21.244;2022-11-21T05:10:29;-5.20;99.90
49855;DHT22;35752;52.164;21.244;2022-11-21T05:12:59;-5.50;99.90
49855;DHT22;35752;52.164;21.244;2022-11-21T05:15:43;-5.50;99.90
49855;DHT22;35752;52.164;21.244;2022-11-21T05:18:09;-5.50;99.90
49855;DHT22;35752;52.164;21.244;2022-11-21T05:20:35;-5.50;99.90
49855;DHT22;35752;52.164;21.244;2022-11-21T05:23:00;-5.60;99.90
49855;DHT22;35752;52.164;21.244;2022-11-21T05:25:26;-5.80;99.90
49855;DHT22;35752;52.164;21.244;2022-11-21T05:27:55;-5.90;99.90
49855;DHT22;35752;52.164;21.244;2022-11-21T05:30:21;-5.90;99.90
49855;DHT22;35752;52.164;21.244;2022-11-21T05:32:46;-5.80;99.90
49855;DHT22;35752;52.164;21.244;2022-11-21T05:35:12;-5.70;99.90
49855;DHT22;35752;52.164;21.244;2022-11-21T05:37:38;-5.80;99.90
49855;DHT22;35752;52.164;21.244;2022-11-21T05:40:04;-5.80;99.90
49855;DHT22;35752;52.164;21.244;2022-11-21T05:42:30;-5.70;99.90
49855;DHT22;35752;52.164;21.244;2022-11-21T05:45:16;-5.70;99.90
49855;DHT22;35752;52.164;21.244;2022-11-21T05:47:41;-5.70;99.90
49855;DHT22;35752;52.164;21.244;2022-11-21T05:50:07;-5.80;99.90
49855;DHT22;35752;52.164;21.244;2022-11-21T05:52:33;-5.80;99.90
49855;DHT22;35752;52.164;21.244;2022-11-21T05:54:58;-5.70;99.90
49855;DHT22;35752;52.164;21.244;2022-11-21T05:57:24;-5.70;99.90
49855;DHT22;35752;52.164;21.244;2022-11-21T05:59:50;-5.70;99.90
49855;DHT22;35752;52.164;21.244;2022-11-21T06:02:15;-5.70;99.90
49855;DHT22;35752;52.164;21.244;2022-11-21T06:04:59;-5.90;99.90
49855;DHT22;35752;52.164;21.244;2022-11-21T06:07:25;-5.80;99.90
49855;DHT22;35752;52.164;21.244;2022-11-21T06:09:51;-5.80;99.90
49855;DHT22;35752;52.164;21.244;2022-11-21T06:12:16;-5.80;99.90
49855;DHT22;35752;52.164;21.244;2022-11-21T06:14:42;-5.90;99.90
49855;DHT22;35752;52.164;21.244;2022-11-21T06:17:07;-5.80;99.90
49855;DHT22;35752;52.164;21.244;2022-11-21T06:19:33;-5.80;99.90
49855;DHT22;35752;52.164;21.244;2022-11-21T06:21:58;-5.80;99.90
49855;DHT22;35752;52.164;21.244;2022-11-21T06:24:24;-5.70;99.90
49855;DHT22;35752;52.164;21.244;2022-11-21T06:26:50;-5.70;99.90
49855;DHT22;35752;52.164;21.244;2022-11-21T06:29:15;-5.80;99.90
49855;DHT22;35752;52.164;21.244;2022-11-21T06:31:41;-5.90;99.90
49855;DHT22;35752;52.164;21.244;2022-11-21T06:34:06;-5.80;99.90
49855;DHT22;35752;52.164;21.244;2022-11-21T06:36:32;-5.60;99.90
49855;DHT22;35752;52.164;21.244;2022-11-21T06:38:58;-5.50;99.90
49855;DHT22;35752;52.164;21.244;2022-11-21T06:41:25;-5.50;99.90
49855;DHT22;35752;52.164;21.244;2022-11-21T06:43:51;-5.40;99.90
49855;DHT22;35752;52.164;21.244;2022-11-21T06:46:17;-5.30;99.90
49855;DHT22;35752;52.164;21.244;2022-11-21T06:48:43;-5.20;99.90
49855;DHT22;35752;52.164;21.244;2022-11-21T06:51:19;-5.30;99.90
49855;DHT22;35752;52.164;21.244;2022-11-21T06:53:46;-5.20;99.90
49855;DHT22;35752;52.164;21.244;2022-11-21T06:56:13;-5.10;99.90
49855;DHT22;35752;52.164;21.244;2022-11-21T06:58:39;-5.00;99.90
49855;DHT22;35752;52.164;21.244;2022-11-21T07:01:07;-4.90;99.90
49855;DHT22;35752;52.164;21.244;2022-11-21T07:03:33;-4.70;99.90
49855;DHT22;35752;52.164;21.244;2022-11-21T07:06:00;-4.60;99.90
49855;DHT22;35752;52.164;21.244;2022-11-21T07:08:27;-4.60;99.90
49855;DHT22;35752;52.164;21.244;2022-11-21T07:10:53;-4.50;99.90
49855;DHT22;35752;52.164;21.244;2022-11-21T07:13:19;-4.40;99.90
49855;DHT22;35752;52.164;21.244;2022-11-21T07:15:50;-4.30;99.90
49855;DHT22;35752;52.164;21.244;2022-11-21T07:18:16;-4.20;99.90
49855;DHT22;35752;52.164;21.244;2022-11-21T07:20:42;-4.10;99.90
49855;DHT22;35752;52.164;21.244;2022-11-21T07:23:08;-4.00;99.90
49855;DHT22;35752;52.164;21.244;2022-11-21T07:25:34;-3.90;99.90
49855;DHT22;35752;52.164;21.244;2022-11-21T07:28:01;-3.80;99.90
49855;DHT22;35752;52.164;21.244;2022-11-21T07:30:27;-3.80;99.90
49855;DHT22;35752;52.164;21.244;2022-11-21T07:32:58;-3.70;99.90
49855;DHT22;35752;52.164;21.244;2022-11-21T07:35:24;-3.60;99.90
49855;DHT22;35752;52.164;21.244;2022-11-21T07:37:50;-3.50;99.90
49855;DHT22;35752;52.164;21.244;2022-11-21T07:40:17;-3.40;99.90
49855;DHT22;35752;52.164;21.244;2022-11-21T07:42:43;-3.30;99.90
49855;DHT22;35752;52.164;21.244;2022-11-21T07:45:09;-3.20;99.90
49855;DHT22;35752;52.164;21.244;2022-11-21T07:47:35;-3.10;99.90
49855;DHT22;35752;52.164;21.244;2022-11-21T07:50:00;-3.00;99.90
49855;DHT22;35752;52.164;21.244;2022-11-21T07:52:27;-2.90;99.90
49855;DHT22;35752;52.164;21.244;2022-11-21T07:54:55;-2.90;99.90
49855;DHT22;35752;52.164;21.244;2022-11-21T07:57:21;-2.80;99.90
49855;DHT22;35752;52.164;21.244;2022-11-21T07:59:46;-2.80;99.90
49855;DHT22;35752;52.164;21.244;2022-11-21T08:02:23;-2.70;99.90
49855;DHT22;35752;52.164;21.244;2022-11-21T08:04:49;-2.70;99.90
49855;DHT22;35752;52.164;21.244;2022-11-21T08:07:17;-2.60;99.90
49855;DHT22;35752;52.164;21.244;2022-11-21T08:09:43;-2.50;99.90
49855;DHT22;35752;52.164;21.244;2022-11-21T08:12:09;-2.40;99.90
49855;DHT22;35752;52.164;21.244;2022-11-21T08:14:35;-2.30;99.90
49855;DHT22;35752;52.164;21.244;2022-11-21T08:17:02;-2.30;99.90
49855;DHT22;35752;52.164;21.244;2022-11-21T08:19:27;-2.20;99.90
49855;DHT22;35752;52.164;21.244;2022-11-21T08:21:53;-2.10;99.90
49855;DHT22;35752;52.164;21.244;2022-11-21T08:24:19;-2.00;99.90
49855;DHT22;35752;52.164;21.244;2022-11-21T08:26:45;-1.90;99.90
49855;DHT22;35752;52.164;21.244;2022-11-21T08:29:12;-1.80;99.90
49855;DHT22;35752;52.164;21.244;2022-11-21T08:31:40;-1.80;99.90
49855;DHT22;35752;52.164;21.244;2022-11-21T08:34:06;-1.60;99.90
49855;DHT22;35752;52.164;21.244;2022-11-21T08:36:32;-1.60;99.90
49855;DHT22;35752;52.164;21.244;2022-11-21T08:38:58;-1.50;99.90
49855;DHT22;35752;52.164;21.244;2022-11-21T08:41:23;-1.40;99.90
49855;DHT22;35752;52.164;21.244;2022-11-21T08:44:08;-1.30;99.90
49855;DHT22;35752;52.164;21.244;2022-11-21T08:46:34;-1.20;99.90
49855;DHT22;35752;52.164;21.244;2022-11-21T08:49:07;-1.20;99.90
49855;DHT22;35752;52.164;21.244;2022-11-21T08:51:33;-1.10;99.90
49855;DHT22;35752;52.164;21.244;2022-11-21T08:53:59;-1.00;99.90
49855;DHT22;35752;52.164;21.244;2022-11-21T08:56:25;-0.80;99.90
49855;DHT22;35752;52.164;21.244;2022-11-21T08:58:51;-0.80;99.90
49855;DHT22;35752;52.164;21.244;2022-11-21T09:01:17;-0.70;99.90
49855;DHT22;35752;52.164;21.244;2022-11-21T09:03:43;-0.60;99.90
49855;DHT22;35752;52.164;21.244;2022-11-21T09:06:09;-0.50;99.90
49855;DHT22;35752;52.164;21.244;2022-11-21T09:08:34;-0.50;99.90
49855;DHT22;35752;52.164;21.244;2022-11-21T09:11:08;-0.40;99.90
49855;DHT22;35752;52.164;21.244;2022-11-21T09:13:34;-0.30;99.90
49855;DHT22;35752;52.164;21.244;2022-11-21T09:16:01;-0.20;99.90
49855;DHT22;35752;52.164;21.244;2022-11-21T09:18:45;-0.10;99.90
49855;DHT22;35752;52.164;21.244;2022-11-21T09:21:17;-0.10;99.90
49855;DHT22;35752;52.164;21.244;2022-11-21T09:23:44;0.00;99.90
49855;DHT22;35752;52.164;21.244;2022-11-21T09:26:10;0.00;99.90
49855;DHT22;35752;52.164;21.244;2022-11-21T09:28:36;0.10;99.90
49855;DHT22;35752;52.164;21.244;2022-11-21T09:31:03;0.10;99.90
49855;DHT22;35752;52.164;21.244;2022-11-21T09:33:29;0.10;99.90
49855;DHT22;35752;52.164;21.244;2022-11-21T09:35:58;0.20;99.90
49855;DHT22;35752;52.164;21.244;2022-11-21T09:38:25;0.10;99.90
49855;DHT22;35752;52.164;21.244;2022-11-21T09:40:59;0.20;99.90
49855;DHT22;35752;52.164;21.244;2022-11-21T09:44:05;0.20;99.90
49855;DHT22;35752;52.164;21.244;2022-11-21T09:46:41;0.20;99.90
49855;DHT22;35752;52.164;21.244;2022-11-21T09:49:11;0.30;99.90
49855;DHT22;35752;52.164;21.244;2022-11-21T09:51:37;0.30;99.90
49855;DHT22;35752;52.164;21.244;2022-11-21T09:54:22;0.40;99.90
49855;DHT22;35752;52.164;21.244;2022-11-21T09:56:52;0.50;99.90
49855;DHT22;35752;52.164;21.244;2022-11-21T10:01:53;0.70;99.90
49855;DHT22;35752;52.164;21.244;2022-11-21T10:04:19;0.80;99.90
49855;DHT22;35752;52.164;21.244;2022-11-21T10:15:49;1.00;99.90
49855;DHT22;35752;52.164;21.244;2022-11-21T10:29:53;1.10;99.90
49855;DHT22;35752;52.164;21.244;2022-11-21T10:34:42;1.10;99.90
49855;DHT22;35752;52.164;21.244;2022-11-21T10:37:14;1.20;99.90
49855;DHT22;35752;52.164;21.244;2022-11-21T10:39:45;1.30;99.90
49855;DHT22;35752;52.164;21.244;2022-11-21T10:44:41;1.30;99.90
49855;DHT22;35752;52.164;21.244;2022-11-21T10:47:32;1.30;99.90
49855;DHT22;35752;52.164;21.244;2022-11-21T10:52:35;1.40;99.90
49855;DHT22;35752;52.164;21.244;2022-11-21T10:57:49;1.60;99.90
49855;DHT22;35752;52.164;21.244;2022-11-21T11:00:19;1.70;99.90
49855;DHT22;35752;52.164;21.244;2022-11-21T11:05:23;1.80;99.90
49855;DHT22;35752;52.164;21.244;2022-11-21T11:13:01;2.00;99.90
49855;DHT22;35752;52.164;21.244;2022-11-21T11:29:25;2.20;99.90
49855;DHT22;35752;52.164;21.244;2022-11-21T11:34:16;2.30;99.90
49855;DHT22;35752;52.164;21.244;2022-11-21T11:42:17;2.30;99.90
49855;DHT22;35752;52.164;21.244;2022-11-21T11:48:15;2.40;99.90
49855;DHT22;35752;52.164;21.244;2022-11-21T11:50:52;2.40;99.90
49855;DHT22;35752;52.164;21.244;2022-11-21T11:53:25;2.40;99.90
49855;DHT22;35752;52.164;21.244;2022-11-21T11:56:30;2.40;99.90
49855;DHT22;35752;52.164;21.244;2022-11-21T11:59:02;2.50;99.90
49855;DHT22;35752;52.164;21.244;2022-11-21T12:01:52;2.50;99.90
49855;DHT22;35752;52.164;21.244;2022-11-21T12:04:21;2.50;99.90
49855;DHT22;35752;52.164;21.244;2022-11-21T12:12:43;2.80;99.90
49855;DHT22;35752;52.164;21.244;2022-11-21T12:15:33;2.90;99.90
49855;DHT22;35752;52.164;21.244;2022-11-21T12:18:27;2.90;99.90
49855;DHT22;35752;52.164;21.244;2022-11-21T12:23:44;2.90;99.90
49855;DHT22;35752;52.164;21.244;2022-11-21T12:45:38;3.00;99.90
49855;DHT22;35752;52.164;21.244;2022-11-21T12:57:11;3.00;99.90
49855;DHT22;35752;52.164;21.244;2022-11-21T13:04:59;2.90;99.90
49855;DHT22;35752;52.164;21.244;2022-11-21T13:07:27;2.80;99.90
49855;DHT22;35752;52.164;21.244;2022-11-21T13:09:58;2.60;99.90
49855;DHT22;35752;52.164;21.244;2022-11-21T13:25:09;2.20;99.90
49855;DHT22;35752;52.164;21.244;2022-11-21T13:27:38;2.10;99.90
49855;DHT22;35752;52.164;21.244;2022-11-21T13:32:46;1.90;99.90
49855;DHT22;35752;52.164;21.244;2022-11-21T13:37:59;1.80;99.90
49855;DHT22;35752;52.164;21.244;2022-11-21T13:45:38;1.70;99.90
49855;DHT22;35752;52.164;21.244;2022-11-21T13:48:32;1.60;99.90
49855;DHT22;35752;52.164;21.244;2022-11-21T13:51:18;1.60;99.90
49855;DHT22;35752;52.164;21.244;2022-11-21T13:54:10;1.50;99.90
49855;DHT22;35752;52.164;21.244;2022-11-21T13:59:41;1.40;99.90
49855;DHT22;35752;52.164;21.244;2022-11-21T14:05:18;1.40;99.90
49855;DHT22;35752;52.164;21.244;2022-11-21T14:07:50;1.30;99.90
49855;DHT22;35752;52.164;21.244;2022-11-21T14:10:26;1.30;99.90
49855;DHT22;35752;52.164;21.244;2022-11-21T14:12:55;1.20;99.90
49855;DHT22;35752;52.164;21.244;2022-11-21T14:15:42;1.10;99.90
49855;DHT22;35752;52.164;21.244;2022-11-21T14:18:23;1.10;99.90
49855;DHT22;35752;52.164;21.244;2022-11-21T14:20:59;1.10;99.90
49855;DHT22;35752;52.164;21.244;2022-11-21T14:23:28;1.00;99.90
49855;DHT22;35752;52.164;21.244;2022-11-21T14:26:00;1.00;99.90
49855;DHT22;35752;52.164;21.244;2022-11-21T14:28:34;0.90;99.90
49855;DHT22;35752;52.164;21.244;2022-11-21T14:33:30;0.90;99.90
49855;DHT22;35752;52.164;21.244;2022-11-21T14:36:03;0.90;99.90
49855;DHT22;35752;52.164;21.244;2022-11-21T14:38:41;0.90;99.90
49855;DHT22;35752;52.164;21.244;2022-11-21T14:46:39;1.10;99.90
49855;DHT22;35752;52.164;21.244;2022-11-21T14:51:51;1.10;99.90
49855;DHT22;35752;52.164;21.244;2022-11-21T14:54:22;1.10;99.90
49855;DHT22;35752;52.164;21.244;2022-11-21T14:57:02;1.00;99.90
49855;DHT22;35752;52.164;21.244;2022-11-21T14:59:39;1.00;99.90
49855;DHT22;35752;52.164;21.244;2022-11-21T15:02:23;1.00;99.90
49855;DHT22;35752;52.164;21.244;2022-11-21T15:04:51;1.00;99.90
49855;DHT22;35752;52.164;21.244;2022-11-21T15:07:28;1.10;99.90
49855;DHT22;35752;52.164;21.244;2022-11-21T15:09:54;1.00;99.90
49855;DHT22;35752;52.164;21.244;2022-11-21T15:12:22;1.00;99.90
49855;DHT22;35752;52.164;21.244;2022-11-21T15:15:05;1.00;99.90
49855;DHT22;35752;52.164;21.244;2022-11-21T15:17:34;1.00;99.90
49855;DHT22;35752;52.164;21.244;2022-11-21T15:20:17;1.00;99.90
49855;DHT22;35752;52.164;21.244;2022-11-21T15:22:44;1.00;99.90
49855;DHT22;35752;52.164;21.244;2022-11-21T15:25:17;1.00;99.90
49855;DHT22;35752;52.164;21.244;2022-11-21T15:27:44;1.00;99.90
49855;DHT22;35752;52.164;21.244;2022-11-21T15:33:16;0.90;99.90
49855;DHT22;35752;52.164;21.244;2022-11-21T15:35:54;0.90;99.90
49855;DHT22;35752;52.164;21.244;2022-11-21T15:46:02;0.90;99.90
49855;DHT22;35752;52.164;21.244;2022-11-21T15:48:28;0.90;99.90
49855;DHT22;35752;52.164;21.244;2022-11-21T15:50:55;0.80;99.90
49855;DHT22;35752;52.164;21.244;2022-11-21T15:53:21;0.90;99.90
49855;DHT22;35752;52.164;21.244;2022-11-21T15:55:47;0.90;99.90
49855;DHT22;35752;52.164;21.244;2022-11-21T15:58:12;0.80;99.90
49855;DHT22;35752;52.164;21.244;2022-11-21T16:00:38;0.90;99.90
49855;DHT22;35752;52.164;21.244;2022-11-21T16:03:04;0.90;99.90
49855;DHT22;35752;52.164;21.244;2022-11-21T16:05:29;0.80;99.90
49855;DHT22;35752;52.164;21.244;2022-11-21T16:07:55;0.80;99.90
49855;DHT22;35752;52.164;21.244;2022-11-21T16:10:20;0.80;99.90
49855;DHT22;35752;52.164;21.244;2022-11-21T16:12:46;0.80;99.90
49855;DHT22;35752;52.164;21.244;2022-11-21T16:15:12;0.90;99.90
49855;DHT22;35752;52.164;21.244;2022-11-21T16:17:38;0.80;99.90
49855;DHT22;35752;52.164;21.244;2022-11-21T16:20:06;0.90;99.90
49855;DHT22;35752;52.164;21.244;2022-11-21T16:22:31;0.80;99.90
49855;DHT22;35752;52.164;21.244;2022-11-21T16:24:58;0.80;99.90
49855;DHT22;35752;52.164;21.244;2022-11-21T16:27:23;0.90;99.90
49855;DHT22;35752;52.164;21.244;2022-11-21T16:29:49;0.90;99.90
49855;DHT22;35752;52.164;21.244;2022-11-21T16:32:15;0.90;99.90
49855;DHT22;35752;52.164;21.244;2022-11-21T16:34:40;0.90;99.90
49855;DHT22;35752;52.164;21.244;2022-11-21T16:37:06;0.90;99.90
49855;DHT22;35752;52.164;21.244;2022-11-21T16:39:31;1.00;99.90
49855;DHT22;35752;52.164;21.244;2022-11-21T16:41:57;1.00;99.90
49855;DHT22;35752;52.164;21.244;2022-11-21T16:44:28;1.00;99.90
49855;DHT22;35752;52.164;21.244;2022-11-21T16:46:55;1.10;99.90
49855;DHT22;35752;52.164;21.244;2022-11-21T16:49:22;1.10;99.90
49855;DHT22;35752;52.164;21.244;2022-11-21T16:51:50;1.00;99.90
49855;DHT22;35752;52.164;21.244;2022-11-21T16:54:26;1.10;99.90
49855;DHT22;35752;52.164;21.244;2022-11-21T16:57:03;1.10;99.90
49855;DHT22;35752;52.164;21.244;2022-11-21T16:59:36;1.10;99.90
49855;DHT22;35752;52.164;21.244;2022-11-21T17:02:12;1.10;99.90
49855;DHT22;35752;52.164;21.244;2022-11-21T17:04:43;1.10;99.90
49855;DHT22;35752;52.164;21.244;2022-11-21T17:07:16;1.10;99.90
49855;DHT22;35752;52.164;21.244;2022-11-21T17:09:46;1.10;99.90
49855;DHT22;35752;52.164;21.244;2022-11-21T17:12:18;1.20;99.90
49855;DHT22;35752;52.164;21.244;2022-11-21T17:14:48;1.20;99.90
49855;DHT22;35752;52.164;21.244;2022-11-21T17:17:15;1.20;99.90
49855;DHT22;35752;52.164;21.244;2022-11-21T17:19:41;1.20;99.90
49855;DHT22;35752;52.164;21.244;2022-11-21T17:22:10;1.20;99.90
49855;DHT22;35752;52.164;21.244;2022-11-21T17:24:37;1.30;99.90
49855;DHT22;35752;52.164;21.244;2022-11-21T17:27:09;1.30;99.90
49855;DHT22;35752;52.164;21.244;2022-11-21T17:29:37;1.30;99.90
49855;DHT22;35752;52.164;21.244;2022-11-21T17:32:03;1.30;99.90
49855;DHT22;35752;52.164;21.244;2022-11-21T17:34:30;1.30;99.90
49855;DHT22;35752;52.164;21.244;2022-11-21T17:36:59;1.30;99.90
49855;DHT22;35752;52.164;21.244;2022-11-21T17:39:26;1.30;99.90
49855;DHT22;35752;52.164;21.244;2022-11-21T17:41:52;1.30;99.90
49855;DHT22;35752;52.164;21.244;2022-11-21T17:44:22;1.30;99.90
49855;DHT22;35752;52.164;21.244;2022-11-21T17:46:50;1.30;99.90
49855;DHT22;35752;52.164;21.244;2022-11-21T17:49:22;1.30;99.90
49855;DHT22;35752;52.164;21.244;2022-11-21T17:51:53;1.30;99.90
49855;DHT22;35752;52.164;21.244;2022-11-21T17:54:21;1.40;99.90
49855;DHT22;35752;52.164;21.244;2022-11-21T17:56:50;1.30;99.90
49855;DHT22;35752;52.164;21.244;2022-11-21T17:59:17;1.40;99.90
49855;DHT22;35752;52.164;21.244;2022-11-21T18:01:44;1.40;99.90
49855;DHT22;35752;52.164;21.244;2022-11-21T18:04:15;1.40;99.90
49855;DHT22;35752;52.164;21.244;2022-11-21T18:06:46;1.40;99.90
49855;DHT22;35752;52.164;21.244;2022-11-21T18:09:18;1.50;99.90
49855;DHT22;35752;52.164;21.244;2022-11-21T18:11:46;1.50;99.90
49855;DHT22;35752;52.164;21.244;2022-11-21T18:14:19;1.50;99.90
49855;DHT22;35752;52.164;21.244;2022-11-21T18:16:52;1.50;99.90
49855;DHT22;35752;52.164;21.244;2022-11-21T18:19:18;1.50;99.90